Lower Brule, SD (57548)

10:46 AM CST on December 21, 2014 (GMT -0600)
Chamberlain | Change Station
CLOSE
Current Station
Airport
Location: Chamberlain,
Elevation: 1693 ft
Nearby Weather Stations
Active Advisory: Special Statement

Elev 1693 ft 43.77 °N, 99.32 °W | Updated 11 minutes ago

Clear
Clear
29 °F
Feels Like 22 °F
N
7
Wind Variable Wind from SE

Today
High -- | Low -- °F
--% Chance of Precip.
Yesterday
High -- | Low -- °F
Precip. -- in
8:10 AM 5:03 PM
Waning Crescent, 0% visible
Pressure 29.60 in
Visibility 10.0 miles
Clouds Clear
Windchill 22 °F
Dew Point 25 °F
Humidity 86%
Rainfall 0.00 in
Snow Depth Not available.
UV 1 out of 12
Pollen .10 out of 12
Air Quality Not available.
Flu Activity Not available.
METAR K9V9 211635Z AUTO 13006KT 10SM CLR M02/M04 A2960 RMK AO2 T10191040

More Conditions Fewer Conditions

Pressure 29.60 in
Visibility 10.0 miles
Clouds Clear
Windchill 22 °F
Dew Point 25 °F
Humidity 86%
Rainfall 0.00 in
Snow Depth Not available.
UV 1 out of 12
Pollen .10 out of 12
Air Quality Not available.
Flu Activity Not available.
METAR K9V9 211635Z AUTO 13006KT 10SM CLR M02/M04 A2960 RMK AO2 T10191040

More Conditions Fewer Conditions

10-Day Weather Forecast

Almanac

Astronomy

Dec. 21, 2014 Rise Set
Actual Time
Civil Twilight
Nautical Twilight
Astronomical Twilight
Moon
Length of Visible Light
Length of Day
Tomorrow will be .
, % of the Moon is Illuminated

Today's Extremes

State Highs State Lows

Community

WunderPhotos

Upload Photos

1,779,433 photos uploaded!

WunderBlogs® & News

Nearby

Air Quality

  Air Quality AQ Index Pollutant
Not available.

Snow Depth

Station Depth Elevation

Earthquake Activity

City Distance Mag. Time & Date
Minimum magnitude displayed is 2.5.

Coastal Water Temperatures

Place Temperature

Nearby Weather Stations